createdAt,value
2019-03-29T00:01:57.572Z,102211.97
2019-03-29T00:07:18.710Z,102213.94
2019-03-29T00:12:40.200Z,102217.61
2019-03-29T00:18:01.360Z,102223.91
2019-03-29T00:23:23.107Z,102219.04
2019-03-29T00:28:44.050Z,102228.70
2019-03-29T00:34:04.871Z,102225.88
2019-03-29T00:39:25.515Z,102231.97
2019-03-29T00:44:46.758Z,102225.16
2019-03-29T00:50:08.153Z,102232.32
2019-03-29T00:55:28.730Z,102226.59
2019-03-29T01:00:49.877Z,102219.04
2019-03-29T01:06:10.836Z,102220.78
2019-03-29T01:11:32.021Z,102213.22
2019-03-29T01:16:53.868Z,102210.18
2019-03-29T01:22:14.908Z,102208.70
2019-03-29T01:27:36.253Z,102216.17
2019-03-29T01:32:57.381Z,102216.89
2019-03-29T01:38:22.138Z,102211.22
2019-03-29T01:43:41.440Z,102211.22
2019-03-29T01:49:02.924Z,102208.39
2019-03-29T01:54:23.949Z,102199.50
2019-03-29T01:59:45.062Z,102200.71
2019-03-29T02:05:06.200Z,102191.45
2019-03-29T02:10:27.133Z,102181.52
2019-03-29T02:15:48.316Z,102182.01
2019-03-29T02:21:09.665Z,102173.08
2019-03-29T02:26:31.004Z,102168.23
2019-03-29T02:31:52.326Z,102162.47
2019-03-29T02:37:13.503Z,102160.73
2019-03-29T02:42:34.536Z,102162.89
2019-03-29T02:47:55.927Z,102154.30
2019-03-29T02:53:16.892Z,102163.05
2019-03-29T02:58:38.441Z,102154.25
2019-03-29T03:03:59.614Z,102145.72
2019-03-29T03:09:20.783Z,102144.34
2019-03-29T03:14:42.133Z,102136.84
2019-03-29T03:20:04.638Z,102146.79
2019-03-29T03:25:25.495Z,102146.62
2019-03-29T03:30:46.621Z,102142.55
2019-03-29T03:36:07.718Z,102136.30
2019-03-29T03:41:28.956Z,102137.23
2019-03-29T03:46:51.170Z,102136.16
2019-03-29T03:52:12.626Z,102129.05
2019-03-29T03:57:34.566Z,102131.92
2019-03-29T04:02:55.719Z,102128.70
2019-03-29T04:08:17.019Z,102123.50
2019-03-29T04:13:38.011Z,102125.52
2019-03-29T04:18:58.840Z,102123.77
2019-03-29T04:24:19.941Z,102116.37
2019-03-29T04:29:41.373Z,102123.17
2019-03-29T04:35:02.580Z,102119.58
2019-03-29T04:40:23.759Z,102128.64
2019-03-29T04:45:44.816Z,102136.55
2019-03-29T04:51:05.938Z,102144.26
2019-03-29T04:56:27.042Z,102144.83
2019-03-29T05:01:48.078Z,102146.58
2019-03-29T05:07:09.329Z,102148.45
2019-03-29T05:12:30.636Z,102144.34
2019-03-29T05:17:52.013Z,102145.55
2019-03-29T05:23:13.117Z,102153.67
2019-03-29T05:28:35.527Z,102144.92
2019-03-29T05:33:56.732Z,102143.67
2019-03-29T05:39:17.969Z,102145.60
2019-03-29T05:44:40.782Z,102148.77
2019-03-29T05:50:01.496Z,102145.99
2019-03-29T05:55:32.409Z,102147.16
2019-03-29T06:00:45.256Z,102148.85
2019-03-29T06:06:06.043Z,102153.62
2019-03-29T06:11:26.725Z,102147.67
2019-03-29T06:16:47.650Z,102146.36
2019-03-29T06:22:08.637Z,102147.18
2019-03-29T06:27:29.759Z,102147.46
2019-03-29T06:32:51.314Z,102149.93
2019-03-29T06:38:13.281Z,102148.44
2019-03-29T06:43:34.136Z,102142.34
2019-03-29T06:48:55.132Z,102138.13
2019-03-29T06:54:15.680Z,102143.28
2019-03-29T06:59:36.811Z,102139.23
2019-03-29T07:04:57.655Z,102137.66
2019-03-29T07:10:18.925Z,102145.59
2019-03-29T07:15:41.200Z,102151.84
2019-03-29T07:21:02.029Z,102150.04
2019-03-29T07:26:23.083Z,102148.81
2019-03-29T07:31:44.131Z,102148.06
2019-03-29T07:37:05.998Z,102152.33
2019-03-29T07:42:26.793Z,102152.43
2019-03-29T07:47:47.704Z,102141.27
2019-03-29T07:53:08.639Z,102149.23
2019-03-29T07:58:29.876Z,102151.30
2019-03-29T08:03:51.420Z,102147.09
2019-03-29T08:09:22.144Z,102150.82
2019-03-29T08:14:36.266Z,102152.27
2019-03-29T08:20:24.554Z,102149.56
2019-03-29T08:25:20.073Z,102146.67
2019-03-29T08:30:41.063Z,102150.56
2019-03-29T08:36:02.530Z,102145.29
2019-03-29T08:41:23.536Z,102142.06
2019-03-29T08:46:44.996Z,102144.73
2019-03-29T08:52:06.104Z,102145.97
2019-03-29T08:57:27.302Z,102146.55
2019-03-29T09:02:48.497Z,102150.06
2019-03-29T09:08:09.809Z,102140.73
2019-03-29T09:13:30.969Z,102145.60
2019-03-29T09:18:52.105Z,102139.55
2019-03-29T09:24:21.981Z,102142.43
2019-03-29T09:29:36.105Z,102135.15
2019-03-29T09:34:57.310Z,102130.16
2019-03-29T09:40:18.917Z,102131.95
2019-03-29T09:45:41.310Z,102129.69
2019-03-29T09:51:02.442Z,102122.00
2019-03-29T09:56:37.508Z,102122.18
2019-03-29T10:01:45.892Z,102118.66
2019-03-29T10:07:08.198Z,102118.89
2019-03-29T10:12:42.275Z,102111.83
2019-03-29T10:17:51.887Z,102116.38
2019-03-29T10:23:12.578Z,102101.25
2019-03-29T10:28:33.711Z,102101.09
2019-03-29T10:33:54.674Z,102095.42
2019-03-29T10:39:16.708Z,102090.92
2019-03-29T10:44:37.390Z,102082.89
2019-03-29T10:49:58.357Z,102071.94
2019-03-29T10:55:19.630Z,102066.43
2019-03-29T11:00:41.129Z,102055.89
2019-03-29T11:06:01.945Z,102057.80
2019-03-29T11:11:22.737Z,102042.95
2019-03-29T11:16:43.900Z,102037.09
2019-03-29T11:22:04.928Z,102034.17
2019-03-29T11:27:25.653Z,102027.06
2019-03-29T11:32:46.668Z,102028.58
2019-03-29T11:38:07.400Z,102016.37
2019-03-29T11:43:28.925Z,102012.30
2019-03-29T11:48:49.711Z,102006.68
2019-03-29T11:54:10.858Z,101996.16
2019-03-29T11:59:32.059Z,101989.84
2019-03-29T12:04:53.499Z,101984.28
2019-03-29T12:10:14.532Z,101978.33
2019-03-29T12:15:35.743Z,101972.00
2019-03-29T12:20:56.952Z,101958.65
2019-03-29T12:26:18.130Z,101955.91
2019-03-29T12:31:38.848Z,101948.76
2019-03-29T12:36:59.998Z,101939.44
2019-03-29T12:42:21.163Z,101927.78
2019-03-29T12:47:42.047Z,101917.61
2019-03-29T12:53:03.137Z,101907.50
2019-03-29T12:58:23.894Z,101902.30
2019-03-29T13:03:44.805Z,101908.08
2019-03-29T13:09:07.004Z,101897.19
2019-03-29T13:14:28.026Z,101884.44
2019-03-29T13:19:50.218Z,101881.97
2019-03-29T13:25:11.719Z,101864.53
2019-03-29T13:30:33.962Z,101844.63
2019-03-29T13:35:55.238Z,101848.65
2019-03-29T13:41:16.401Z,101834.17
2019-03-29T13:46:37.566Z,101823.05
2019-03-29T13:51:59.019Z,101822.12
2019-03-29T13:57:20.217Z,101818.07
2019-03-29T14:02:41.175Z,101808.70
2019-03-29T14:08:02.328Z,101810.81
2019-03-29T14:13:24.515Z,101795.00
2019-03-29T14:18:45.852Z,101786.37
2019-03-29T14:24:06.756Z,101781.82
2019-03-29T14:29:27.896Z,101775.20
2019-03-29T14:34:48.814Z,101759.56
2019-03-29T14:40:10.527Z,101751.23
2019-03-29T14:45:31.687Z,101754.40
2019-03-29T14:50:52.818Z,101737.23
2019-03-29T14:56:14.024Z,101741.97
2019-03-29T15:01:35.181Z,101732.52
2019-03-29T15:06:56.656Z,101728.27
2019-03-29T15:12:17.531Z,101722.67
2019-03-29T15:17:38.789Z,101718.66
2019-03-29T15:22:59.769Z,101704.48
2019-03-29T15:28:20.922Z,101700.90
2019-03-29T15:33:42.159Z,101691.69
2019-03-29T15:39:04.031Z,101683.03
2019-03-29T15:44:26.176Z,101681.53
2019-03-29T15:49:55.782Z,101678.66
2019-03-29T15:55:11.446Z,101666.56
2019-03-29T16:00:32.640Z,101670.53
2019-03-29T16:05:53.595Z,101661.31
2019-03-29T16:11:17.401Z,101653.18
2019-03-29T16:16:59.904Z,101652.98
2019-03-29T16:22:20.980Z,101651.13
2019-03-29T16:27:42.221Z,101647.14
2019-03-29T16:33:03.600Z,101637.67
2019-03-29T16:38:24.517Z,101629.34
2019-03-29T16:43:45.346Z,101615.80
2019-03-29T16:49:06.071Z,101614.58
2019-03-29T16:54:27.499Z,101614.36
2019-03-29T16:59:48.631Z,101607.05
2019-03-29T17:05:10.471Z,101599.08
2019-03-29T17:10:31.709Z,101591.50
2019-03-29T17:16:01.601Z,101592.21
2019-03-29T17:21:15.811Z,101589.41
2019-03-29T17:26:36.625Z,101587.82
2019-03-29T17:31:57.618Z,101583.06
2019-03-29T17:37:19.072Z,101576.11
2019-03-29T17:42:40.282Z,101577.72
2019-03-29T17:48:01.501Z,101581.73
2019-03-29T17:53:22.603Z,101575.14
2019-03-29T17:58:43.541Z,101576.18
2019-03-29T18:04:04.735Z,101569.83
2019-03-29T18:09:26.005Z,101572.11
2019-03-29T18:14:46.851Z,101574.12
2019-03-29T18:20:08.385Z,101569.03
2019-03-29T18:25:29.256Z,101574.70
2019-03-29T18:30:50.599Z,101574.95
2019-03-29T18:36:11.830Z,101569.48
2019-03-29T18:41:33.198Z,101570.36
2019-03-29T18:46:53.990Z,101576.09
2019-03-29T18:52:15.142Z,101569.30
2019-03-29T18:57:36.301Z,101573.23
2019-03-29T19:02:57.345Z,101574.24
2019-03-29T19:08:18.739Z,101571.95
2019-03-29T19:13:39.492Z,101569.70
2019-03-29T19:19:10.013Z,101565.66
2019-03-29T19:24:23.390Z,101568.49
2019-03-29T19:29:44.538Z,101565.13
2019-03-29T19:35:06.244Z,101565.55
2019-03-29T19:40:27.369Z,101559.19
2019-03-29T19:45:49.156Z,101560.25
2019-03-29T19:51:09.706Z,101557.91
2019-03-29T19:56:31.058Z,101554.36
2019-03-29T20:01:53.227Z,101557.20
2019-03-29T20:07:14.393Z,101557.05
2019-03-29T20:19:12.542Z,101551.96
2019-03-29T20:24:33.948Z,101550.92
2019-03-29T20:29:55.355Z,101553.38
2019-03-29T20:35:16.399Z,101547.31
2019-03-29T20:40:37.266Z,101554.27
2019-03-29T20:46:04.695Z,101543.62
2019-03-29T20:51:25.410Z,101550.22
2019-03-29T20:56:46.495Z,101542.61
2019-03-29T21:02:07.435Z,101544.08
2019-03-29T21:07:28.471Z,101537.48
2019-03-29T21:12:49.184Z,101537.48
2019-03-29T21:18:10.101Z,101535.80
2019-03-29T21:23:30.889Z,101534.36
2019-03-29T21:28:53.047Z,101529.28
2019-03-29T21:34:14.144Z,101523.55
2019-03-29T21:39:35.421Z,101518.87
2019-03-29T21:44:56.337Z,101521.28
2019-03-29T21:50:17.955Z,101519.78
2019-03-29T21:55:38.658Z,101523.45
2019-03-29T22:00:59.287Z,101515.16
2019-03-29T22:06:20.497Z,101514.66
2019-03-29T22:11:41.485Z,101507.83
2019-03-29T22:17:02.785Z,101508.92
2019-03-29T22:22:23.836Z,101505.06
2019-03-29T22:27:45.022Z,101502.80
2019-03-29T22:33:06.288Z,101502.66
2019-03-29T22:38:27.540Z,101504.25
2019-03-29T22:43:49.077Z,101501.23
2019-03-29T22:49:10.036Z,101496.25
2019-03-29T22:54:31.175Z,101492.09
2019-03-29T22:59:52.224Z,101483.48
2019-03-29T23:05:13.330Z,101468.38
2019-03-29T23:10:34.194Z,101460.59
2019-03-29T23:16:03.198Z,101458.38
2019-03-29T23:21:24.435Z,101467.40
2019-03-29T23:26:45.327Z,101459.27
2019-03-29T23:32:06.625Z,101455.21
2019-03-29T23:37:27.679Z,101451.23
2019-03-29T23:42:48.810Z,101448.30
2019-03-29T23:48:10.229Z,101450.52
2019-03-29T23:53:31.174Z,101437.31
2019-03-29T23:58:51.960Z,101439.43
